createdAt,value
2023-02-06T00:01:31.494Z,-7.98
2023-02-06T00:03:59.573Z,-7.97
2023-02-06T00:06:27.684Z,-7.97
2023-02-06T00:08:55.634Z,-7.95
2023-02-06T00:11:24.594Z,-7.92
2023-02-06T00:13:52.459Z,-7.87
2023-02-06T00:16:23.711Z,-7.84
2023-02-06T00:18:52.988Z,-7.84
2023-02-06T00:21:24.563Z,-7.82
2023-02-06T00:23:54.758Z,-7.81
2023-02-06T00:26:23.898Z,-7.80
2023-02-06T00:28:51.985Z,-7.82
2023-02-06T00:31:20.023Z,-7.83
2023-02-06T00:33:48.332Z,-7.82
2023-02-06T00:36:16.452Z,-7.78
2023-02-06T00:38:44.474Z,-7.77
2023-02-06T00:41:12.741Z,-7.78
2023-02-06T00:43:42.159Z,-7.80
2023-02-06T00:46:10.177Z,-7.81
2023-02-06T00:48:38.138Z,-7.83
2023-02-06T00:51:06.413Z,-7.88
2023-02-06T00:53:34.354Z,-7.93
2023-02-06T00:56:02.405Z,-7.98
2023-02-06T00:58:30.504Z,-8.04
2023-02-06T01:00:58.552Z,-8.09
2023-02-06T01:03:26.574Z,-8.15
2023-02-06T01:05:54.506Z,-8.18
2023-02-06T01:08:22.508Z,-8.19
2023-02-06T01:10:50.395Z,-8.18
2023-02-06T01:13:18.737Z,-8.17
2023-02-06T01:15:46.687Z,-8.14
2023-02-06T01:18:14.534Z,-8.13
2023-02-06T01:20:42.482Z,-8.13
2023-02-06T01:23:10.816Z,-8.15
2023-02-06T01:25:38.817Z,-8.15
2023-02-06T01:28:06.769Z,-8.14
2023-02-06T01:30:34.823Z,-8.12
2023-02-06T01:33:02.762Z,-8.09
2023-02-06T01:35:30.687Z,-8.08
2023-02-06T01:37:58.754Z,-8.07
2023-02-06T01:40:26.875Z,-8.06
2023-02-06T01:42:54.769Z,-8.07
2023-02-06T01:45:31.498Z,-8.09
2023-02-06T01:48:04.878Z,-8.11
2023-02-06T01:50:34.469Z,-8.15
2023-02-06T01:53:05.241Z,-8.20
2023-02-06T01:55:36.148Z,-8.25
2023-02-06T01:58:05.366Z,-8.33
2023-02-06T02:00:33.646Z,-8.38
2023-02-06T02:03:02.175Z,-8.42
2023-02-06T02:05:33.281Z,-8.44
2023-02-06T02:08:20.563Z,-8.44
2023-02-06T02:10:48.598Z,-8.42
2023-02-06T02:13:17.002Z,-8.39
2023-02-06T02:15:59.805Z,-8.36
2023-02-06T02:18:51.033Z,-8.32
2023-02-06T02:21:56.490Z,-8.29
2023-02-06T02:24:38.481Z,-8.26
2023-02-06T02:27:15.228Z,-8.25
2023-02-06T02:30:11.246Z,-8.23
2023-02-06T02:32:57.525Z,-8.21
2023-02-06T02:35:48.566Z,-8.25
2023-02-06T02:38:38.498Z,-8.30
2023-02-06T02:41:38.182Z,-8.35
2023-02-06T02:44:15.876Z,-8.43
2023-02-06T02:46:47.036Z,-8.50
2023-02-06T02:49:19.836Z,-8.52
2023-02-06T02:51:49.184Z,-8.56
2023-02-06T02:54:18.367Z,-8.55
2023-02-06T02:56:46.738Z,-8.55
2023-02-06T02:59:24.401Z,-8.53
2023-02-06T03:02:08.089Z,-8.50
2023-02-06T03:04:51.443Z,-8.47
2023-02-06T03:07:25.361Z,-8.43
2023-02-06T03:10:06.864Z,-8.39
2023-02-06T03:12:34.674Z,-8.37
2023-02-06T03:15:09.986Z,-8.36
2023-02-06T03:18:08.572Z,-8.38
2023-02-06T03:20:42.171Z,-8.40
2023-02-06T03:23:12.547Z,-8.43
2023-02-06T03:25:44.465Z,-8.46
2023-02-06T03:28:18.717Z,-8.49
2023-02-06T03:30:51.267Z,-8.49
2023-02-06T03:33:25.781Z,-8.48
2023-02-06T03:35:56.968Z,-8.46
2023-02-06T03:38:26.737Z,-8.42
2023-02-06T03:40:58.015Z,-8.38
2023-02-06T03:43:29.664Z,-8.34
2023-02-06T03:46:02.448Z,-8.31
2023-02-06T03:48:35.073Z,-8.30
2023-02-06T03:51:18.015Z,-8.26
2023-02-06T03:53:48.984Z,-8.23
2023-02-06T03:56:35.348Z,-8.25
2023-02-06T03:59:03.739Z,-8.26
2023-02-06T04:01:32.088Z,-8.28
2023-02-06T04:04:00.088Z,-8.29
2023-02-06T04:06:28.032Z,-8.31
2023-02-06T04:08:56.017Z,-8.33
2023-02-06T04:11:23.937Z,-8.31
2023-02-06T04:13:51.892Z,-8.29
2023-02-06T04:16:19.828Z,-8.25
2023-02-06T04:18:47.761Z,-8.22
2023-02-06T04:21:15.703Z,-8.22
2023-02-06T04:23:43.945Z,-8.20
2023-02-06T04:26:11.816Z,-8.16
2023-02-06T04:28:39.703Z,-8.15
2023-02-06T04:31:07.616Z,-8.12
2023-02-06T04:33:35.507Z,-8.13
2023-02-06T04:36:03.706Z,-8.11
2023-02-06T04:38:31.736Z,-8.12
2023-02-06T04:41:07.651Z,-8.13
2023-02-06T04:43:35.575Z,-8.17
2023-02-06T04:46:03.567Z,-8.23
2023-02-06T04:48:31.504Z,-8.25
2023-02-06T04:50:59.438Z,-8.26
2023-02-06T04:53:27.376Z,-8.25
2023-02-06T04:56:05.483Z,-8.23
2023-02-06T04:58:34.331Z,-8.19
2023-02-06T05:01:02.451Z,-8.16
2023-02-06T05:03:30.951Z,-8.12
2023-02-06T05:06:00.472Z,-8.05
2023-02-06T05:08:28.886Z,-8.01
2023-02-06T05:10:57.459Z,-8.01
2023-02-06T05:13:25.871Z,-8.00
2023-02-06T05:15:53.918Z,-7.99
2023-02-06T05:18:21.912Z,-8.03
2023-02-06T05:20:50.006Z,-8.10
2023-02-06T05:23:18.149Z,-8.19
2023-02-06T05:25:46.087Z,-8.25
2023-02-06T05:28:14.108Z,-8.29
2023-02-06T05:30:42.241Z,-8.30
2023-02-06T05:33:10.250Z,-8.32
2023-02-06T05:35:39.441Z,-8.32
2023-02-06T05:38:07.822Z,-8.31
2023-02-06T05:40:35.708Z,-8.28
2023-02-06T05:43:03.872Z,-8.26
2023-02-06T05:45:31.846Z,-8.23
2023-02-06T05:47:59.766Z,-8.19
2023-02-06T05:50:27.971Z,-8.15
2023-02-06T05:52:55.951Z,-8.13
2023-02-06T05:55:23.836Z,-8.10
2023-02-06T05:57:51.808Z,-8.04
2023-02-06T06:00:20.066Z,-7.97
2023-02-06T06:02:47.967Z,-7.90
2023-02-06T06:05:16.040Z,-7.84
2023-02-06T06:07:43.962Z,-7.80
2023-02-06T06:10:11.894Z,-7.79
2023-02-06T06:12:39.873Z,-7.77
2023-02-06T06:15:08.511Z,-7.76
2023-02-06T06:17:36.387Z,-7.75
2023-02-06T06:20:05.217Z,-7.76
2023-02-06T06:22:33.269Z,-7.78
2023-02-06T06:25:01.172Z,-7.82
2023-02-06T06:27:29.209Z,-7.87
2023-02-06T06:29:57.044Z,-7.90
2023-02-06T06:32:25.033Z,-7.88
2023-02-06T06:34:52.891Z,-7.85
2023-02-06T06:37:20.800Z,-7.77
2023-02-06T06:39:48.774Z,-7.69
2023-02-06T06:42:16.763Z,-7.60
2023-02-06T06:44:44.681Z,-7.49
2023-02-06T06:47:12.685Z,-7.39
2023-02-06T06:49:40.696Z,-7.30
2023-02-06T06:52:19.520Z,-7.21
2023-02-06T06:54:52.874Z,-7.15
2023-02-06T06:57:22.061Z,-7.09
2023-02-06T06:59:50.618Z,-7.06
2023-02-06T07:02:18.528Z,-7.03
2023-02-06T07:04:46.622Z,-7.03
2023-02-06T07:07:14.728Z,-7.02
2023-02-06T07:09:42.782Z,-7.05
2023-02-06T07:12:10.695Z,-7.04
2023-02-06T07:14:40.209Z,-7.03
2023-02-06T07:17:08.289Z,-7.01
2023-02-06T07:19:36.232Z,-7.04
2023-02-06T07:22:04.315Z,-7.02
2023-02-06T07:24:32.487Z,-6.94
2023-02-06T07:27:00.428Z,-6.84
2023-02-06T07:29:28.497Z,-6.77
2023-02-06T07:31:56.409Z,-6.68
2023-02-06T07:34:24.447Z,-6.59
2023-02-06T07:36:52.431Z,-6.48
2023-02-06T07:39:20.381Z,-6.35
2023-02-06T07:41:50.360Z,-6.24
2023-02-06T07:44:18.211Z,-6.16
2023-02-06T07:46:46.622Z,-6.06
2023-02-06T07:49:16.100Z,-5.98
2023-02-06T07:51:45.275Z,-5.90
2023-02-06T07:54:13.395Z,-5.82
2023-02-06T07:56:41.876Z,-5.76
2023-02-06T07:59:10.297Z,-5.73
2023-02-06T08:01:38.221Z,-5.64
2023-02-06T08:04:06.151Z,-5.58
2023-02-06T08:06:34.167Z,-5.51
2023-02-06T08:09:02.463Z,-5.42
2023-02-06T08:11:31.266Z,-5.31
2023-02-06T08:13:59.155Z,-5.23
2023-02-06T08:16:27.188Z,-5.20
2023-02-06T08:18:55.232Z,-5.15
2023-02-06T08:21:25.357Z,-5.08
2023-02-06T08:23:58.586Z,-5.00
2023-02-06T08:26:29.500Z,-4.94
2023-02-06T08:29:00.665Z,-4.86
2023-02-06T08:31:36.248Z,-4.77
2023-02-06T08:34:05.684Z,-4.75
2023-02-06T08:36:34.400Z,-4.74
2023-02-06T08:39:04.278Z,-4.68
2023-02-06T08:41:37.088Z,-4.63
2023-02-06T08:44:09.160Z,-4.56
2023-02-06T08:46:38.098Z,-4.48
2023-02-06T08:49:11.407Z,-4.40
2023-02-06T08:51:39.323Z,-4.35
2023-02-06T08:54:11.334Z,-4.31
2023-02-06T08:56:39.616Z,-4.31
2023-02-06T08:59:08.345Z,-4.30
2023-02-06T09:01:37.035Z,-4.26
2023-02-06T09:04:10.372Z,-4.23
2023-02-06T09:06:41.629Z,-4.25
2023-02-06T09:09:11.040Z,-4.25
2023-02-06T09:11:39.106Z,-4.25
2023-02-06T09:14:08.891Z,-4.22
2023-02-06T09:16:37.852Z,-4.15
2023-02-06T09:19:06.564Z,-4.08
2023-02-06T09:21:35.822Z,-4.06
2023-02-06T09:24:06.684Z,-4.02
2023-02-06T09:26:44.858Z,-4.02
2023-02-06T09:29:21.612Z,-4.08
2023-02-06T09:31:49.574Z,-4.08
2023-02-06T09:34:17.582Z,-4.04
2023-02-06T09:36:45.895Z,-4.04
2023-02-06T09:39:13.943Z,-4.03
2023-02-06T09:41:49.329Z,-4.01
2023-02-06T09:44:27.330Z,-4.00
2023-02-06T09:46:58.747Z,-3.97
2023-02-06T09:49:38.577Z,-3.93
2023-02-06T09:52:36.225Z,-3.91
2023-02-06T09:55:19.441Z,-3.88
2023-02-06T09:57:58.615Z,-3.82
2023-02-06T10:00:40.138Z,-3.79
2023-02-06T10:03:22.652Z,-3.77
2023-02-06T10:06:27.165Z,-3.73
2023-02-06T10:09:05.406Z,-3.71
2023-02-06T10:11:48.377Z,-3.67
2023-02-06T10:14:36.639Z,-3.61
2023-02-06T10:17:12.985Z,-3.56
2023-02-06T10:19:53.157Z,-3.52
2023-02-06T10:22:30.652Z,-3.48
2023-02-06T10:25:17.322Z,-3.44
2023-02-06T10:27:47.853Z,-3.39
2023-02-06T10:30:22.852Z,-3.33
2023-02-06T10:33:23.955Z,-3.25
2023-02-06T10:36:05.426Z,-3.19
2023-02-06T10:38:51.583Z,-3.18
2023-02-06T10:41:41.396Z,-3.16
2023-02-06T10:44:40.160Z,-3.18
2023-02-06T10:47:26.730Z,-3.17
2023-02-06T10:50:02.019Z,-3.15
2023-02-06T10:52:37.622Z,-3.10
2023-02-06T10:55:13.954Z,-3.09
2023-02-06T10:57:43.405Z,-3.11
2023-02-06T11:00:21.049Z,-3.12
2023-02-06T11:03:17.626Z,-3.06
2023-02-06T11:05:46.118Z,-2.96
2023-02-06T11:08:27.617Z,-2.90
2023-02-06T11:10:56.211Z,-2.86
2023-02-06T11:13:27.322Z,-2.82
2023-02-06T11:16:22.173Z,-2.82
2023-02-06T11:18:51.853Z,-2.80
2023-02-06T11:21:41.637Z,-2.80
2023-02-06T11:24:13.304Z,-2.78
2023-02-06T11:26:43.627Z,-2.79
2023-02-06T11:29:16.593Z,-2.79
2023-02-06T11:31:58.594Z,-2.78
2023-02-06T11:34:53.745Z,-2.77
2023-02-06T11:37:40.177Z,-2.76
2023-02-06T11:40:17.278Z,-2.72
2023-02-06T11:42:54.247Z,-2.65
2023-02-06T11:45:31.242Z,-2.57
2023-02-06T11:47:59.993Z,-2.46
2023-02-06T11:50:35.630Z,-2.36
2023-02-06T11:53:18.653Z,-2.24
2023-02-06T11:55:59.923Z,-2.08
2023-02-06T11:58:29.328Z,-1.93
2023-02-06T12:01:01.919Z,-1.90
2023-02-06T12:03:43.756Z,-1.97
2023-02-06T12:06:22.026Z,-1.99
2023-02-06T12:08:56.239Z,-1.92
2023-02-06T12:11:52.272Z,-1.94
2023-02-06T12:14:32.143Z,-1.98
2023-02-06T12:17:03.720Z,-2.01
2023-02-06T12:19:40.728Z,-2.10
2023-02-06T12:22:17.642Z,-2.22
2023-02-06T12:24:49.312Z,-2.26
2023-02-06T12:27:24.287Z,-2.25
2023-02-06T12:30:01.864Z,-2.21
2023-02-06T12:32:37.039Z,-2.17
2023-02-06T12:35:35.752Z,-2.13
2023-02-06T12:38:13.044Z,-2.11
2023-02-06T12:40:45.335Z,-2.12
2023-02-06T12:43:16.035Z,-2.12
2023-02-06T12:45:46.838Z,-2.09
2023-02-06T12:48:23.418Z,-2.06
2023-02-06T12:51:06.804Z,-2.04
2023-02-06T12:53:54.127Z,-2.02
2023-02-06T12:56:24.955Z,-1.99
2023-02-06T12:59:03.168Z,-1.96
2023-02-06T13:01:58.250Z,-1.98
2023-02-06T13:04:30.630Z,-1.93
2023-02-06T13:07:07.366Z,-1.87
2023-02-06T13:09:41.533Z,-1.84
2023-02-06T13:12:21.530Z,-1.86
2023-02-06T13:14:56.562Z,-1.85
2023-02-06T13:17:42.564Z,-1.91
2023-02-06T13:20:16.155Z,-2.06
2023-02-06T13:22:55.104Z,-2.10
2023-02-06T13:25:25.713Z,-2.13
2023-02-06T13:27:55.073Z,-2.14
2023-02-06T13:30:28.880Z,-2.17
2023-02-06T13:33:16.968Z,-2.19
2023-02-06T13:36:01.712Z,-2.23
2023-02-06T13:38:37.772Z,-2.25
2023-02-06T13:41:14.643Z,-2.27
2023-02-06T13:43:42.580Z,-2.33
2023-02-06T13:46:17.697Z,-2.37
2023-02-06T13:49:16.465Z,-2.37
2023-02-06T13:51:53.038Z,-2.40
2023-02-06T13:54:34.506Z,-2.41
2023-02-06T13:57:08.476Z,-2.40
2023-02-06T13:59:47.146Z,-2.43
2023-02-06T14:02:35.215Z,-2.45
2023-02-06T14:05:06.506Z,-2.47
2023-02-06T14:07:57.380Z,-2.50
2023-02-06T14:10:46.831Z,-2.50
2023-02-06T14:13:33.528Z,-2.50
2023-02-06T14:16:23.382Z,-2.51
2023-02-06T14:19:19.540Z,-2.55
2023-02-06T14:21:58.846Z,-2.59
2023-02-06T14:24:45.145Z,-2.61
2023-02-06T14:27:34.755Z,-2.65
2023-02-06T14:30:21.081Z,-2.71
2023-02-06T14:32:54.432Z,-2.74
2023-02-06T14:35:39.679Z,-2.77
2023-02-06T14:38:19.565Z,-2.78
2023-02-06T14:40:51.471Z,-2.78
2023-02-06T14:43:24.122Z,-2.81
2023-02-06T14:46:06.977Z,-2.82
2023-02-06T14:48:35.923Z,-2.84
2023-02-06T14:51:04.536Z,-2.87
2023-02-06T14:53:36.365Z,-2.90
2023-02-06T14:56:24.310Z,-2.92
2023-02-06T14:58:52.386Z,-2.94
2023-02-06T15:01:28.345Z,-2.96
2023-02-06T15:04:30.290Z,-2.99
2023-02-06T15:07:05.688Z,-3.03
2023-02-06T15:09:39.037Z,-3.05
2023-02-06T15:12:23.736Z,-3.08
2023-02-06T15:15:14.420Z,-3.11
2023-02-06T15:17:43.284Z,-3.14
2023-02-06T15:20:40.249Z,-3.17
2023-02-06T15:23:40.142Z,-3.20
2023-02-06T15:26:35.660Z,-3.24
2023-02-06T15:29:06.195Z,-3.28
2023-02-06T15:31:34.426Z,-3.31
2023-02-06T15:34:02.986Z,-3.33
2023-02-06T15:36:36.807Z,-3.36
2023-02-06T15:39:09.597Z,-3.40
2023-02-06T15:41:43.276Z,-3.43
2023-02-06T15:44:27.349Z,-3.46
2023-02-06T15:46:55.850Z,-3.50
2023-02-06T15:49:44.530Z,-3.55
2023-02-06T15:52:14.927Z,-3.59
2023-02-06T15:54:45.100Z,-3.63
2023-02-06T15:57:30.877Z,-3.67
2023-02-06T15:59:59.058Z,-3.70
2023-02-06T16:02:37.019Z,-3.73
2023-02-06T16:05:09.436Z,-3.78
2023-02-06T16:07:37.612Z,-3.81
2023-02-06T16:10:08.611Z,-3.85
2023-02-06T16:12:39.776Z,-3.90
2023-02-06T16:15:33.022Z,-3.94
2023-02-06T16:18:29.505Z,-4.00
2023-02-06T16:21:16.245Z,-4.05
2023-02-06T16:23:53.211Z,-4.07
2023-02-06T16:26:26.361Z,-4.10
2023-02-06T16:28:56.878Z,-4.14
2023-02-06T16:31:30.962Z,-4.18
2023-02-06T16:34:03.426Z,-4.22
2023-02-06T16:36:33.547Z,-4.27
2023-02-06T16:39:04.828Z,-4.32
2023-02-06T16:41:37.140Z,-4.37
2023-02-06T16:44:13.469Z,-4.40
2023-02-06T16:46:45.332Z,-4.43
2023-02-06T16:49:22.414Z,-4.46
2023-02-06T16:51:53.834Z,-4.48
2023-02-06T16:54:32.717Z,-4.51
2023-02-06T16:57:25.169Z,-4.52
2023-02-06T16:59:53.544Z,-4.56
2023-02-06T17:02:24.001Z,-4.59
2023-02-06T17:04:55.504Z,-4.63
2023-02-06T17:07:26.858Z,-4.67
2023-02-06T17:09:56.993Z,-4.69
2023-02-06T17:12:28.849Z,-4.71
2023-02-06T17:14:59.388Z,-4.74
2023-02-06T17:17:27.605Z,-4.77
2023-02-06T17:19:55.585Z,-4.81
2023-02-06T17:22:23.763Z,-4.84
2023-02-06T17:24:51.787Z,-4.84
2023-02-06T17:27:22.025Z,-4.85
2023-02-06T17:29:51.033Z,-4.84
2023-02-06T17:32:22.476Z,-4.83
2023-02-06T17:34:56.057Z,-4.84
2023-02-06T17:37:24.097Z,-4.85
2023-02-06T17:39:52.721Z,-4.88
2023-02-06T17:42:23.093Z,-4.92
2023-02-06T17:44:51.296Z,-4.96
2023-02-06T17:47:19.355Z,-5.01
2023-02-06T17:49:47.401Z,-5.06
2023-02-06T17:52:15.563Z,-5.09
2023-02-06T17:54:44.115Z,-5.12
2023-02-06T17:57:13.609Z,-5.17
2023-02-06T17:59:41.495Z,-5.23
2023-02-06T18:02:13.224Z,-5.26
2023-02-06T18:04:41.707Z,-5.32
2023-02-06T18:07:09.858Z,-5.36
2023-02-06T18:09:37.893Z,-5.38
2023-02-06T18:12:06.113Z,-5.39
2023-02-06T18:14:35.408Z,-5.40
2023-02-06T18:17:06.362Z,-5.41
2023-02-06T18:19:41.966Z,-5.40
2023-02-06T18:22:12.849Z,-5.40
2023-02-06T18:24:41.153Z,-5.42
2023-02-06T18:27:09.751Z,-5.44
2023-02-06T18:29:49.813Z,-5.47
2023-02-06T18:32:19.178Z,-5.50
2023-02-06T18:34:47.334Z,-5.54
2023-02-06T18:37:15.624Z,-5.60
2023-02-06T18:39:43.551Z,-5.67
2023-02-06T18:42:30.537Z,-5.72
2023-02-06T18:44:58.430Z,-5.77
2023-02-06T18:47:26.411Z,-5.81
2023-02-06T18:49:54.435Z,-5.84
2023-02-06T18:52:22.558Z,-5.86
2023-02-06T18:54:50.493Z,-5.87
2023-02-06T18:57:18.400Z,-5.88
2023-02-06T18:59:46.345Z,-5.89
2023-02-06T19:02:14.442Z,-5.90
2023-02-06T19:04:42.521Z,-5.92
2023-02-06T19:07:11.837Z,-5.94
2023-02-06T19:09:39.874Z,-5.96
2023-02-06T19:12:08.011Z,-6.00
2023-02-06T19:14:36.424Z,-6.04
2023-02-06T19:17:04.469Z,-6.08
2023-02-06T19:19:32.670Z,-6.13
2023-02-06T19:22:00.663Z,-6.20
2023-02-06T19:24:30.790Z,-6.25
2023-02-06T19:26:58.895Z,-6.28
2023-02-06T19:29:35.688Z,-6.28
2023-02-06T19:32:07.254Z,-6.27
2023-02-06T19:34:38.473Z,-6.27
2023-02-06T19:37:09.162Z,-6.27
2023-02-06T19:39:40.344Z,-6.28
2023-02-06T19:42:10.346Z,-6.31
2023-02-06T19:44:38.317Z,-6.34
2023-02-06T19:47:06.313Z,-6.38
2023-02-06T19:49:34.216Z,-6.39
2023-02-06T19:52:03.022Z,-6.42
2023-02-06T19:54:30.988Z,-6.45
2023-02-06T19:57:00.622Z,-6.49
2023-02-06T19:59:29.658Z,-6.53
2023-02-06T20:02:00.579Z,-6.55
2023-02-06T20:04:34.235Z,-6.55
2023-02-06T20:07:03.110Z,-6.53
2023-02-06T20:09:31.769Z,-6.53
2023-02-06T20:12:00.196Z,-6.55
2023-02-06T20:14:28.211Z,-6.59
2023-02-06T20:16:56.466Z,-6.64
2023-02-06T20:19:27.132Z,-6.67
2023-02-06T20:21:59.032Z,-6.69
2023-02-06T20:24:30.403Z,-6.71
2023-02-06T20:27:02.277Z,-6.75
2023-02-06T20:29:35.435Z,-6.79
2023-02-06T20:32:04.999Z,-6.81
2023-02-06T20:34:33.165Z,-6.83
2023-02-06T20:37:01.259Z,-6.81
2023-02-06T20:39:31.100Z,-6.79
2023-02-06T20:41:59.425Z,-6.77
2023-02-06T20:44:29.789Z,-6.73
2023-02-06T20:46:57.743Z,-6.70
2023-02-06T20:49:27.736Z,-6.68
2023-02-06T20:51:56.608Z,-6.68
2023-02-06T20:54:25.922Z,-6.66
2023-02-06T20:56:53.905Z,-6.65
2023-02-06T20:59:22.641Z,-6.68
2023-02-06T21:01:50.601Z,-6.75
2023-02-06T21:04:19.459Z,-6.82
2023-02-06T21:06:48.753Z,-6.88
2023-02-06T21:09:18.440Z,-6.94
2023-02-06T21:11:48.924Z,-6.98
2023-02-06T21:14:17.903Z,-7.02
2023-02-06T21:16:46.300Z,-7.07
2023-02-06T21:19:16.022Z,-7.10
2023-02-06T21:21:46.105Z,-7.13
2023-02-06T21:24:16.571Z,-7.15
2023-02-06T21:26:44.857Z,-7.15
2023-02-06T21:29:14.307Z,-7.14
2023-02-06T21:31:43.338Z,-7.13
2023-02-06T21:34:17.696Z,-7.09
2023-02-06T21:36:46.538Z,-7.05
2023-02-06T21:39:20.422Z,-7.00
2023-02-06T21:41:51.775Z,-6.95
2023-02-06T21:44:20.823Z,-6.93
2023-02-06T21:46:48.888Z,-6.91
2023-02-06T21:49:17.569Z,-6.91
2023-02-06T21:51:45.595Z,-6.93
2023-02-06T21:54:13.548Z,-7.00
2023-02-06T21:56:41.541Z,-7.08
2023-02-06T21:59:11.278Z,-7.16
2023-02-06T22:01:41.174Z,-7.23
2023-02-06T22:04:11.101Z,-7.29
2023-02-06T22:06:39.506Z,-7.34
2023-02-06T22:09:11.245Z,-7.41
2023-02-06T22:11:40.040Z,-7.44
2023-02-06T22:14:11.706Z,-7.44
2023-02-06T22:16:40.477Z,-7.45
2023-02-06T22:19:10.534Z,-7.44
2023-02-06T22:21:38.976Z,-7.45
2023-02-06T22:24:09.232Z,-7.44
2023-02-06T22:26:39.430Z,-7.41
2023-02-06T22:29:10.825Z,-7.38
2023-02-06T22:31:40.567Z,-7.35
2023-02-06T22:34:14.384Z,-7.34
2023-02-06T22:36:44.044Z,-7.34
2023-02-06T22:39:13.480Z,-7.40
2023-02-06T22:41:44.428Z,-7.49
2023-02-06T22:44:16.516Z,-7.60
2023-02-06T22:46:47.407Z,-7.69
2023-02-06T22:49:16.040Z,-7.76
2023-02-06T22:51:44.657Z,-7.83
2023-02-06T22:54:14.028Z,-7.85
2023-02-06T22:56:43.578Z,-7.89
2023-02-06T22:59:21.830Z,-7.93
2023-02-06T23:01:51.740Z,-7.94
2023-02-06T23:04:24.523Z,-7.93
2023-02-06T23:06:53.031Z,-7.92
2023-02-06T23:09:26.687Z,-7.91
2023-02-06T23:11:58.232Z,-7.92
2023-02-06T23:14:27.901Z,-7.92
2023-02-06T23:16:55.863Z,-7.89
2023-02-06T23:19:23.997Z,-7.86
2023-02-06T23:21:52.062Z,-7.86
2023-02-06T23:24:21.059Z,-7.87
2023-02-06T23:26:51.170Z,-7.92
2023-02-06T23:29:20.282Z,-7.95
2023-02-06T23:31:49.471Z,-7.98
2023-02-06T23:34:18.779Z,-8.05
2023-02-06T23:36:47.247Z,-8.09
2023-02-06T23:39:15.812Z,-8.14
2023-02-06T23:41:43.702Z,-8.19
2023-02-06T23:44:12.183Z,-8.20
2023-02-06T23:46:41.226Z,-8.19
2023-02-06T23:49:09.748Z,-8.17
2023-02-06T23:51:38.574Z,-8.14
2023-02-06T23:54:07.507Z,-8.13
2023-02-06T23:56:35.717Z,-8.11
2023-02-06T23:59:05.211Z,-8.10
